Time;durP1;ratioP1;P1;durP2;ratioP2;P2;SDS_P1;SDS_P2;PMS_P1;PMS_P2;Temp;Humidity;BMP_temperature;BMP_pressure;BME280_temperature;BME280_humidity;BME280_pressure;Samples;Min_cycle;Max_cycle;Signal;HPM_P1;HPM_P2
2023/12/15 00:02:15;;;;;;;57.70;28.73;;;3.90;99.90;;;;;;5059752;28;20183;-70
2023/12/15 00:04:41;;;;;;;63.27;31.43;;;3.90;99.90;;;;;;5064121;28;20184;-71
2023/12/15 00:07:07;;;;;;;61.43;28.93;;;3.80;99.90;;;;;;5074087;28;20193;-70
2023/12/15 00:09:33;;;;;;;57.27;28.77;;;3.80;99.90;;;;;;5068316;28;20756;-70
2023/12/15 00:11:58;;;;;;;57.67;29.10;;;3.80;99.90;;;;;;5067142;28;20198;-70
2023/12/15 00:14:24;;;;;;;65.20;28.93;;;3.80;99.90;;;;;;5061914;28;20197;-70
2023/12/15 00:16:50;;;;;;;60.87;28.93;;;3.70;99.90;;;;;;5066464;28;20269;-70
2023/12/15 00:19:16;;;;;;;56.30;28.57;;;3.70;99.90;;;;;;5054835;28;20614;-70
2023/12/15 00:21:41;;;;;;;60.87;28.77;;;3.70;99.90;;;;;;5065843;28;20178;-69
2023/12/15 00:24:08;;;;;;;60.47;29.07;;;3.70;99.90;;;;;;5073386;28;20182;-71
2023/12/15 00:26:35;;;;;;;56.67;28.40;;;3.70;99.90;;;;;;5073897;28;20181;-70
2023/12/15 00:29:03;;;;;;;59.57;28.73;;;3.70;99.90;;;;;;5060966;28;20260;-70
2023/12/15 00:31:29;;;;;;;60.13;28.00;;;3.70;99.90;;;;;;5064025;28;20577;-71
2023/12/15 00:33:55;;;;;;;59.97;28.33;;;3.70;99.90;;;;;;5059415;28;20675;-70
2023/12/15 00:36:21;;;;;;;60.63;27.80;;;3.70;99.90;;;;;;5054677;28;20174;-70
2023/12/15 00:38:47;;;;;;;59.83;27.77;;;3.60;99.90;;;;;;5054094;28;20214;-71
2023/12/15 00:41:13;;;;;;;65.63;30.40;;;3.60;99.90;;;;;;5056694;28;20182;-70
2023/12/15 00:43:38;;;;;;;57.07;28.57;;;3.70;99.90;;;;;;5056227;28;20652;-69
2023/12/15 00:46:04;;;;;;;58.27;28.20;;;3.70;99.90;;;;;;5067091;28;20186;-69
2023/12/15 00:48:30;;;;;;;60.93;28.90;;;3.70;99.90;;;;;;5056490;28;20687;-71
2023/12/15 00:50:56;;;;;;;52.70;27.27;;;3.70;99.90;;;;;;5069653;28;20691;-71
2023/12/15 00:53:21;;;;;;;65.30;28.93;;;3.70;99.90;;;;;;5068418;28;20591;-70
2023/12/15 00:55:47;;;;;;;58.57;28.83;;;3.70;99.90;;;;;;5064307;28;20176;-70
2023/12/15 00:58:13;;;;;;;57.20;26.60;;;3.70;99.90;;;;;;5061856;28;20202;-71
2023/12/15 01:00:39;;;;;;;55.33;27.03;;;3.70;99.90;;;;;;5063276;28;20261;-70
2023/12/15 01:03:05;;;;;;;56.77;27.67;;;3.70;99.90;;;;;;5056250;28;20182;-71
2023/12/15 01:05:31;;;;;;;61.80;30.50;;;3.80;99.90;;;;;;5064284;28;20183;-71
2023/12/15 01:07:57;;;;;;;54.57;26.30;;;3.70;99.90;;;;;;5060308;28;20217;-70
2023/12/15 01:10:22;;;;;;;60.90;26.90;;;3.70;99.90;;;;;;5054705;28;20193;-71
2023/12/15 01:12:48;;;;;;;59.73;28.37;;;3.80;99.90;;;;;;5053803;28;20182;-70
2023/12/15 01:15:14;;;;;;;52.87;27.47;;;3.80;99.90;;;;;;5063622;28;20186;-71
2023/12/15 01:17:40;;;;;;;50.07;27.53;;;3.80;99.90;;;;;;5053570;28;20178;-70
2023/12/15 01:20:10;;;;;;;53.33;26.80;;;3.80;99.90;;;;;;5052813;28;20178;-70
2023/12/15 01:22:36;;;;;;;63.10;28.13;;;3.90;99.90;;;;;;5065963;28;20202;-71
2023/12/15 01:25:01;;;;;;;56.60;27.43;;;3.90;99.90;;;;;;5062934;28;20670;-70
2023/12/15 01:27:27;;;;;;;56.37;27.20;;;3.90;99.90;;;;;;5069341;28;20170;-71
2023/12/15 01:29:53;;;;;;;56.20;27.10;;;3.90;99.90;;;;;;5065032;28;20583;-70
2023/12/15 01:32:19;;;;;;;53.30;26.03;;;3.90;99.90;;;;;;5063463;28;20197;-71
2023/12/15 01:34:44;;;;;;;46.23;25.17;;;3.90;99.90;;;;;;5065954;28;20182;-71
2023/12/15 01:37:10;;;;;;;49.20;26.03;;;3.90;99.90;;;;;;5063967;28;20179;-70
2023/12/15 01:39:36;;;;;;;55.53;27.37;;;3.90;99.90;;;;;;5069333;28;20299;-70
2023/12/15 01:42:02;;;;;;;49.10;25.67;;;3.90;99.90;;;;;;5053982;28;20178;-70
2023/12/15 01:44:27;;;;;;;52.00;24.77;;;3.90;99.90;;;;;;5052529;28;20194;-70
2023/12/15 01:46:53;;;;;;;52.80;25.93;;;3.90;99.90;;;;;;5067611;28;20174;-70
2023/12/15 01:49:19;;;;;;;52.07;25.73;;;3.90;99.90;;;;;;5053046;28;20244;-71
2023/12/15 01:51:45;;;;;;;50.40;24.20;;;3.90;99.90;;;;;;5054351;28;20203;-70
2023/12/15 01:54:11;;;;;;;52.23;25.17;;;3.90;99.90;;;;;;5060903;28;20183;-71
2023/12/15 01:56:37;;;;;;;56.50;24.70;;;3.90;99.90;;;;;;5054628;28;20253;-70
2023/12/15 01:59:02;;;;;;;57.00;25.53;;;3.90;99.90;;;;;;5052061;28;20544;-71
2023/12/15 02:01:28;;;;;;;50.87;25.33;;;3.90;99.90;;;;;;5062840;28;20173;-70
2023/12/15 02:03:54;;;;;;;51.47;25.33;;;3.90;99.90;;;;;;5061269;28;20186;-70
2023/12/15 02:06:20;;;;;;;53.13;25.27;;;3.90;99.90;;;;;;5062517;28;20232;-71
2023/12/15 02:08:47;;;;;;;52.77;25.57;;;3.90;99.90;;;;;;5070279;28;20205;-71
2023/12/15 02:11:13;;;;;;;51.73;25.90;;;3.90;99.90;;;;;;5054301;28;20745;-71
2023/12/15 02:13:39;;;;;;;50.67;24.80;;;3.90;99.90;;;;;;5051103;28;20182;-71
2023/12/15 02:16:05;;;;;;;54.00;25.60;;;4.00;99.90;;;;;;5060670;28;20208;-70
2023/12/15 02:18:31;;;;;;;50.20;25.03;;;4.00;99.90;;;;;;5063062;28;20205;-70
2023/12/15 02:20:57;;;;;;;45.67;23.63;;;4.00;99.90;;;;;;5061947;28;20212;-71
2023/12/15 02:23:22;;;;;;;47.87;23.87;;;4.00;99.90;;;;;;5071241;28;20177;-70
2023/12/15 02:25:48;;;;;;;47.53;25.23;;;4.10;99.90;;;;;;5071870;28;20186;-70
2023/12/15 02:28:14;;;;;;;43.57;24.30;;;4.10;99.90;;;;;;5070396;28;20248;-70
2023/12/15 02:30:40;;;;;;;54.07;26.17;;;4.10;99.90;;;;;;5070420;28;20204;-70
2023/12/15 02:33:05;;;;;;;42.10;23.77;;;4.20;99.90;;;;;;5063892;28;20174;-70
2023/12/15 02:35:31;;;;;;;48.93;23.83;;;4.30;99.90;;;;;;5053858;28;20182;-71
2023/12/15 02:37:57;;;;;;;44.67;24.13;;;4.30;99.90;;;;;;5062661;28;20281;-71
2023/12/15 02:40:23;;;;;;;45.47;24.63;;;4.30;99.90;;;;;;5054723;28;20228;-71
2023/12/15 02:42:48;;;;;;;45.10;23.20;;;4.30;99.90;;;;;;5053767;28;20257;-71
2023/12/15 02:45:14;;;;;;;45.97;23.97;;;4.30;99.90;;;;;;5064633;28;20248;-71
2023/12/15 02:47:40;;;;;;;42.70;23.37;;;4.30;99.90;;;;;;5059980;28;20214;-71
2023/12/15 02:50:06;;;;;;;50.03;23.20;;;4.30;99.90;;;;;;5053168;28;20592;-71
2023/12/15 02:52:32;;;;;;;45.80;24.83;;;4.30;99.90;;;;;;5051357;28;20237;-71
2023/12/15 02:54:58;;;;;;;45.43;24.47;;;4.30;99.90;;;;;;5067523;28;20198;-70
2023/12/15 02:57:23;;;;;;;56.40;24.70;;;4.20;99.90;;;;;;5060079;28;20182;-71
2023/12/15 02:59:49;;;;;;;45.87;24.77;;;4.30;99.90;;;;;;5058771;28;20201;-70
2023/12/15 03:02:15;;;;;;;49.03;25.33;;;4.30;99.90;;;;;;5058622;28;20663;-71
2023/12/15 03:04:41;;;;;;;52.47;23.77;;;4.30;99.90;;;;;;5051605;28;20183;-71
2023/12/15 03:07:06;;;;;;;51.87;24.27;;;4.30;99.90;;;;;;5054212;28;20218;-71
2023/12/15 03:09:32;;;;;;;51.17;25.67;;;4.20;99.90;;;;;;5064327;28;20209;-71
2023/12/15 03:11:58;;;;;;;51.37;25.17;;;4.20;99.90;;;;;;5062999;28;20289;-71
2023/12/15 03:14:24;;;;;;;51.57;26.33;;;4.30;99.90;;;;;;5063552;28;20236;-71
2023/12/15 03:16:50;;;;;;;49.63;24.57;;;4.30;99.90;;;;;;5059011;28;20311;-71
2023/12/15 03:19:15;;;;;;;43.53;24.07;;;4.30;99.90;;;;;;5061691;28;20199;-71
2023/12/15 03:21:41;;;;;;;51.47;25.17;;;4.30;99.90;;;;;;5051264;28;20565;-71
2023/12/15 03:24:07;;;;;;;62.93;30.67;;;4.30;99.90;;;;;;5050850;28;20194;-71
2023/12/15 03:26:33;;;;;;;58.33;27.63;;;4.40;99.90;;;;;;5066530;28;20199;-71
2023/12/15 03:28:58;;;;;;;56.20;29.33;;;4.40;99.90;;;;;;5065295;28;20225;-71
2023/12/15 03:31:24;;;;;;;66.00;33.13;;;4.50;99.90;;;;;;5065581;28;20200;-71
2023/12/15 03:33:50;;;;;;;61.47;30.20;;;4.50;99.90;;;;;;5062984;28;20659;-71
2023/12/15 03:36:16;;;;;;;57.10;31.27;;;4.60;99.90;;;;;;5066771;28;20201;-71
2023/12/15 03:38:41;;;;;;;55.43;30.80;;;4.70;99.90;;;;;;5065041;28;20662;-71
2023/12/15 03:41:07;;;;;;;57.37;30.63;;;4.80;99.90;;;;;;5063311;28;20196;-71
2023/12/15 03:43:33;;;;;;;55.43;31.90;;;4.80;99.90;;;;;;5060226;28;20269;-71
2023/12/15 03:46:01;;;;;;;63.57;32.00;;;4.90;99.90;;;;;;5055688;28;20210;-70
2023/12/15 03:48:27;;;;;;;57.93;31.20;;;4.90;99.90;;;;;;5054028;28;20225;-71
2023/12/15 03:50:54;;;;;;;62.40;32.17;;;4.80;99.90;;;;;;5055474;28;20213;-70
2023/12/15 03:53:20;;;;;;;59.43;33.20;;;4.80;99.90;;;;;;5061230;28;20198;-70
2023/12/15 03:55:45;;;;;;;59.37;32.63;;;4.80;99.90;;;;;;5075263;28;20224;-70
2023/12/15 03:58:11;;;;;;;63.40;32.77;;;4.80;99.90;;;;;;5074113;28;20197;-71
2023/12/15 04:00:37;;;;;;;70.70;35.10;;;4.90;99.90;;;;;;5075095;28;20182;-70
2023/12/15 04:03:03;;;;;;;72.33;33.83;;;4.90;99.90;;;;;;5075601;28;20178;-70
2023/12/15 04:05:29;;;;;;;62.23;32.47;;;4.90;99.90;;;;;;5075729;28;20280;-71
2023/12/15 04:07:54;;;;;;;60.10;31.23;;;4.90;99.90;;;;;;5075416;28;20694;-71
2023/12/15 04:10:20;;;;;;;68.97;33.27;;;4.90;99.90;;;;;;5074953;28;20177;-71
2023/12/15 04:12:46;;;;;;;61.43;33.27;;;4.90;99.90;;;;;;5073867;28;20200;-71
2023/12/15 04:15:12;;;;;;;59.40;31.50;;;4.90;99.90;;;;;;5060470;28;20178;-70
2023/12/15 04:17:37;;;;;;;62.37;33.90;;;4.90;99.90;;;;;;5055554;28;20506;-71
2023/12/15 04:20:04;;;;;;;67.40;34.50;;;4.90;99.90;;;;;;5053734;28;20261;-71
2023/12/15 04:22:30;;;;;;;77.00;36.50;;;4.90;99.90;;;;;;5055043;28;20174;-71
2023/12/15 04:24:55;;;;;;;65.37;34.07;;;4.90;99.90;;;;;;5053695;28;20655;-71
2023/12/15 04:27:21;;;;;;;66.10;32.67;;;4.90;99.90;;;;;;5053603;28;20711;-70
2023/12/15 04:29:47;;;;;;;64.20;34.03;;;4.90;99.90;;;;;;5054784;28;20683;-71
2023/12/15 04:32:13;;;;;;;68.93;34.10;;;4.90;99.90;;;;;;5054676;28;20221;-71
2023/12/15 04:34:39;;;;;;;62.10;33.27;;;4.90;99.90;;;;;;5055144;28;20162;-71
2023/12/15 04:37:05;;;;;;;67.57;33.77;;;5.00;99.90;;;;;;5053149;28;20610;-71
2023/12/15 04:39:30;;;;;;;65.47;34.73;;;5.00;99.90;;;;;;5054702;28;20191;-71
2023/12/15 04:41:56;;;;;;;66.60;32.80;;;5.00;99.90;;;;;;5053379;28;20182;-71
2023/12/15 04:44:22;;;;;;;66.60;32.63;;;5.00;99.90;;;;;;5054836;28;20198;-71
2023/12/15 04:46:49;;;;;;;62.93;33.93;;;5.00;99.90;;;;;;5054539;28;20661;-71
2023/12/15 04:49:15;;;;;;;67.47;33.50;;;5.10;99.90;;;;;;5053186;28;20275;-71
2023/12/15 04:51:41;;;;;;;66.33;32.73;;;5.10;99.90;;;;;;5055063;28;20194;-71
2023/12/15 04:54:07;;;;;;;70.10;33.00;;;5.10;99.90;;;;;;5054649;28;20182;-71
2023/12/15 04:56:33;;;;;;;63.70;32.57;;;5.10;99.90;;;;;;5053543;28;20174;-71
2023/12/15 04:58:58;;;;;;;58.20;31.23;;;5.10;99.90;;;;;;5056946;28;20194;-72
2023/12/15 05:01:25;;;;;;;65.33;34.43;;;5.10;99.90;;;;;;5072025;28;20216;-76
2023/12/15 05:03:51;;;;;;;58.30;33.43;;;5.10;99.90;;;;;;5070810;28;20182;-72
2023/12/15 05:06:21;;;;;;;67.47;33.93;;;5.10;99.90;;;;;;5056605;28;20182;-72
2023/12/15 05:08:51;;;;;;;68.97;35.83;;;5.10;99.90;;;;;;5053637;28;20202;-71
2023/12/15 05:11:18;;;;;;;68.73;35.60;;;5.10;99.90;;;;;;5055999;28;20194;-71
2023/12/15 05:13:44;;;;;;;69.83;34.87;;;5.10;99.90;;;;;;5062246;28;20201;-71
2023/12/15 05:16:10;;;;;;;66.57;33.97;;;5.10;99.90;;;;;;5060104;28;20175;-72
2023/12/15 05:18:36;;;;;;;70.60;32.63;;;5.10;99.90;;;;;;5054245;28;20556;-71
2023/12/15 05:21:02;;;;;;;63.33;33.13;;;5.20;99.90;;;;;;5052786;28;20252;-71
2023/12/15 05:23:28;;;;;;;59.53;32.07;;;5.20;99.90;;;;;;5054112;28;20166;-71
2023/12/15 05:25:54;;;;;;;69.90;34.40;;;5.20;99.90;;;;;;5053642;28;20718;-71
2023/12/15 05:28:20;;;;;;;73.10;35.10;;;5.20;99.90;;;;;;5052581;28;20229;-71
2023/12/15 05:30:46;;;;;;;68.63;34.33;;;5.20;99.90;;;;;;5054008;28;20191;-71
2023/12/15 05:33:11;;;;;;;66.40;33.40;;;5.20;99.90;;;;;;5054223;28;20217;-71
2023/12/15 05:35:37;;;;;;;68.20;35.03;;;5.20;99.90;;;;;;5052416;28;20178;-71
2023/12/15 05:38:03;;;;;;;71.80;35.87;;;5.20;99.90;;;;;;5052359;28;20273;-71
2023/12/15 05:40:29;;;;;;;62.77;32.63;;;5.20;99.90;;;;;;5053337;28;20224;-71
2023/12/15 05:42:55;;;;;;;68.97;35.00;;;5.20;99.90;;;;;;5052245;28;20184;-71
2023/12/15 05:45:21;;;;;;;75.37;33.30;;;5.30;99.90;;;;;;5053418;28;20178;-71
2023/12/15 05:47:48;;;;;;;67.97;32.20;;;5.20;99.90;;;;;;5052003;28;20186;-71
2023/12/15 05:50:14;;;;;;;71.37;36.43;;;5.30;99.90;;;;;;5051941;28;20543;-71
2023/12/15 05:52:40;;;;;;;70.37;32.80;;;5.30;99.90;;;;;;5053303;28;20671;-71
2023/12/15 05:55:06;;;;;;;72.10;33.67;;;5.30;99.90;;;;;;5053257;28;20178;-70
2023/12/15 05:57:32;;;;;;;70.73;32.97;;;5.30;99.90;;;;;;5052282;28;20643;-71
2023/12/15 05:59:58;;;;;;;71.47;34.90;;;5.30;99.90;;;;;;5052006;28;20285;-71
2023/12/15 06:02:23;;;;;;;65.77;32.03;;;5.40;99.90;;;;;;5052182;28;20178;-71
2023/12/15 06:04:49;;;;;;;66.40;32.70;;;5.40;99.90;;;;;;5053485;28;20174;-71
2023/12/15 06:07:19;;;;;;;69.77;34.00;;;5.40;99.90;;;;;;5053200;28;20230;-71
2023/12/15 06:09:45;;;;;;;62.23;31.60;;;5.40;99.90;;;;;;5052991;28;20191;-71
2023/12/15 06:12:11;;;;;;;60.57;32.43;;;5.40;99.90;;;;;;5053050;28;20205;-71
2023/12/15 06:14:40;;;;;;;60.50;31.93;;;5.40;99.90;;;;;;5051827;28;20190;-71
2023/12/15 06:17:06;;;;;;;52.80;29.57;;;5.40;99.90;;;;;;5053101;28;20170;-71
2023/12/15 06:19:33;;;;;;;63.13;34.20;;;5.40;99.90;;;;;;5052990;28;20182;-71
2023/12/15 06:21:59;;;;;;;52.33;29.97;;;5.40;99.90;;;;;;5052962;28;20254;-71
2023/12/15 06:24:25;;;;;;;57.90;30.93;;;5.40;99.90;;;;;;5051441;28;20185;-71
2023/12/15 06:26:51;;;;;;;57.97;31.17;;;5.50;99.90;;;;;;5051586;28;20621;-71
2023/12/15 06:29:17;;;;;;;60.37;31.13;;;5.50;99.90;;;;;;5052866;28;20232;-71
2023/12/15 06:31:47;;;;;;;53.17;28.57;;;5.50;99.90;;;;;;5052896;28;20243;-72
2023/12/15 06:34:13;;;;;;;60.10;32.17;;;5.50;99.90;;;;;;5052876;28;20174;-71
2023/12/15 06:36:41;;;;;;;64.60;31.07;;;5.50;99.90;;;;;;5052857;28;20250;-71
2023/12/15 06:39:08;;;;;;;59.17;31.53;;;5.60;99.90;;;;;;5051215;28;20207;-71
2023/12/15 06:41:33;;;;;;;63.33;31.77;;;5.60;99.90;;;;;;5051470;28;20647;-71
2023/12/15 06:43:59;;;;;;;68.83;31.83;;;5.60;99.90;;;;;;5053091;28;20274;-70
2023/12/15 06:46:25;;;;;;;63.70;32.00;;;5.60;99.90;;;;;;5051617;28;20558;-71
2023/12/15 06:48:53;;;;;;;57.37;30.50;;;5.60;99.90;;;;;;5052538;28;20289;-71
2023/12/15 06:51:19;;;;;;;69.77;31.87;;;5.60;99.90;;;;;;5051413;28;20198;-71
2023/12/15 06:53:45;;;;;;;70.63;33.20;;;5.60;99.90;;;;;;5052833;28;20159;-70
2023/12/15 06:56:10;;;;;;;65.03;34.33;;;5.60;99.90;;;;;;5051101;28;20185;-69
2023/12/15 06:58:36;;;;;;;71.83;32.57;;;5.70;99.90;;;;;;5052927;28;20265;-71
2023/12/15 07:01:02;;;;;;;71.33;33.63;;;5.70;99.90;;;;;;5054870;28;20636;-71
2023/12/15 07:03:28;;;;;;;67.00;31.57;;;5.60;99.90;;;;;;5056606;28;20175;-71
2023/12/15 07:05:54;;;;;;;70.17;31.83;;;5.60;99.90;;;;;;5055185;28;20189;-71
2023/12/15 07:08:20;;;;;;;65.67;31.83;;;5.70;99.90;;;;;;5055306;28;20285;-71
2023/12/15 07:10:46;;;;;;;65.60;30.03;;;5.60;99.90;;;;;;5056248;28;20265;-71
2023/12/15 07:13:12;;;;;;;74.60;32.67;;;5.70;99.90;;;;;;5056483;28;20202;-71
2023/12/15 07:15:38;;;;;;;61.47;30.80;;;5.70;99.90;;;;;;5063124;28;20218;-71
2023/12/15 07:18:03;;;;;;;77.53;35.33;;;5.70;99.90;;;;;;5058929;28;20199;-71
2023/12/15 07:20:29;;;;;;;67.37;34.73;;;5.70;99.90;;;;;;5057118;28;20186;-71
2023/12/15 07:22:55;;;;;;;68.87;33.93;;;5.70;99.90;;;;;;5056342;28;20178;-71
2023/12/15 07:25:24;;;;;;;77.27;34.77;;;5.70;99.90;;;;;;5054668;28;20175;-71
2023/12/15 07:27:50;;;;;;;74.93;33.90;;;5.70;99.90;;;;;;5056275;28;20198;-71
2023/12/15 07:30:16;;;;;;;76.33;35.43;;;5.70;99.90;;;;;;5056702;28;20163;-71
2023/12/15 07:32:42;;;;;;;76.10;34.77;;;5.70;99.90;;;;;;5056128;28;20276;-71
2023/12/15 07:35:08;;;;;;;75.97;35.37;;;5.70;99.90;;;;;;5054619;28;20248;-71
2023/12/15 07:37:34;;;;;;;76.60;34.63;;;5.70;99.90;;;;;;5054629;28;20288;-71
2023/12/15 07:40:00;;;;;;;82.17;36.20;;;5.80;99.90;;;;;;5055496;28;20285;-70
2023/12/15 07:42:28;;;;;;;74.27;35.40;;;5.80;99.90;;;;;;5055722;28;20182;-71
2023/12/15 07:44:54;;;;;;;76.37;36.00;;;5.70;99.90;;;;;;5055613;28;20182;-70
2023/12/15 07:47:20;;;;;;;83.47;36.03;;;5.70;99.90;;;;;;5056258;28;20531;-70
2023/12/15 07:49:45;;;;;;;85.73;36.63;;;5.80;99.90;;;;;;5055412;28;20238;-71
2023/12/15 07:52:11;;;;;;;81.30;34.93;;;5.80;99.90;;;;;;5055486;28;20194;-71
2023/12/15 07:54:37;;;;;;;80.87;35.67;;;5.80;99.90;;;;;;5054000;28;20625;-70
2023/12/15 07:57:03;;;;;;;80.30;37.63;;;5.80;99.90;;;;;;5055740;28;20170;-71
2023/12/15 07:59:29;;;;;;;82.43;35.83;;;5.80;99.90;;;;;;5055886;28;20671;-70
2023/12/15 08:01:55;;;;;;;79.43;36.27;;;5.90;99.90;;;;;;5055606;28;20605;-71
2023/12/15 08:04:21;;;;;;;79.33;36.93;;;5.80;99.90;;;;;;5054054;28;20674;-71
2023/12/15 08:06:47;;;;;;;74.20;35.73;;;5.80;99.90;;;;;;5055744;28;20170;-71
2023/12/15 08:09:12;;;;;;;76.30;34.23;;;5.90;99.90;;;;;;5055371;28;20197;-71
2023/12/15 08:11:38;;;;;;;81.57;35.10;;;5.90;99.90;;;;;;5054588;28;20593;-71
2023/12/15 08:14:04;;;;;;;84.33;35.23;;;5.80;99.90;;;;;;5055002;28;20627;-71
2023/12/15 08:16:30;;;;;;;78.20;35.10;;;5.90;99.90;;;;;;5055305;28;20175;-72
2023/12/15 08:18:57;;;;;;;82.20;35.30;;;5.90;99.90;;;;;;5053772;28;20774;-71
2023/12/15 08:21:23;;;;;;;79.00;34.43;;;5.90;99.90;;;;;;5055480;28;20178;-71
2023/12/15 08:23:49;;;;;;;88.50;37.27;;;6.00;99.90;;;;;;5053686;28;20178;-71
2023/12/15 08:26:23;;;;;;;77.13;36.03;;;6.00;99.90;;;;;;5053481;28;20182;-72
2023/12/15 08:28:49;;;;;;;76.03;35.87;;;6.00;99.90;;;;;;5055350;28;20203;-71
2023/12/15 08:31:16;;;;;;;83.60;35.87;;;6.00;99.90;;;;;;5054843;28;20194;-71
2023/12/15 08:33:42;;;;;;;78.50;35.57;;;6.00;99.90;;;;;;5054054;28;20210;-71
2023/12/15 08:36:09;;;;;;;84.97;37.50;;;6.00;99.90;;;;;;5054813;28;20171;-71
2023/12/15 08:38:35;;;;;;;87.70;37.23;;;6.00;99.90;;;;;;5054837;28;20201;-69
2023/12/15 08:41:02;;;;;;;92.50;37.27;;;6.00;99.90;;;;;;5054561;28;20702;-70
2023/12/15 08:43:28;;;;;;;82.57;36.30;;;6.00;99.90;;;;;;5054603;28;20197;-70
2023/12/15 08:45:54;;;;;;;88.03;36.50;;;6.00;99.90;;;;;;5053365;28;20198;-70
2023/12/15 08:48:20;;;;;;;86.23;37.20;;;6.00;99.90;;;;;;5053003;28;20619;-71
2023/12/15 08:50:46;;;;;;;89.27;36.90;;;6.10;99.90;;;;;;5053076;28;20269;-71
2023/12/15 08:53:16;;;;;;;79.23;34.87;;;6.10;99.90;;;;;;5054709;28;20238;-71
2023/12/15 08:55:42;;;;;;;87.27;36.33;;;6.10;99.90;;;;;;5052794;28;20177;-69
2023/12/15 08:58:09;;;;;;;95.00;38.87;;;6.10;99.90;;;;;;5054245;28;20190;-70
2023/12/15 09:00:36;;;;;;;94.00;38.50;;;6.10;99.90;;;;;;5054460;28;20170;-70
2023/12/15 09:03:01;;;;;;;90.63;37.20;;;6.10;99.90;;;;;;5053010;28;20551;-71
2023/12/15 09:05:27;;;;;;;94.33;38.70;;;6.10;99.90;;;;;;5053125;28;20174;-70
2023/12/15 09:07:53;;;;;;;91.90;38.23;;;6.20;99.90;;;;;;5054534;28;20167;-71
2023/12/15 09:10:20;;;;;;;84.00;36.03;;;6.20;99.90;;;;;;5053938;28;20560;-71
2023/12/15 09:12:46;;;;;;;86.00;38.50;;;6.20;99.90;;;;;;5054373;28;20711;-70
2023/12/15 09:15:12;;;;;;;87.73;36.90;;;6.30;99.90;;;;;;5052714;28;20648;-71
2023/12/15 09:17:45;;;;;;;88.73;37.17;;;6.30;99.90;;;;;;5054284;28;20175;-71
2023/12/15 09:20:12;;;;;;;89.37;37.43;;;6.30;99.90;;;;;;5052904;28;20194;-71
2023/12/15 09:22:40;;;;;;;79.40;34.67;;;6.40;99.90;;;;;;5052670;28;20182;-71
2023/12/15 09:25:07;;;;;;;83.47;35.97;;;6.40;99.90;;;;;;5053946;28;20174;-71
2023/12/15 09:27:33;;;;;;;105.07;37.73;;;6.40;99.90;;;;;;5056620;28;20179;-72
2023/12/15 09:29:59;;;;;;;95.43;37.90;;;6.40;99.90;;;;;;5059839;28;20202;-71
2023/12/15 09:32:25;;;;;;;93.17;37.93;;;6.40;99.90;;;;;;5055680;28;20631;-71
2023/12/15 09:34:51;;;;;;;96.30;38.50;;;6.40;99.90;;;;;;5052752;28;20219;-71
2023/12/15 09:37:17;;;;;;;94.60;38.50;;;6.40;99.90;;;;;;5053849;28;20261;-71
2023/12/15 09:39:43;;;;;;;94.97;36.93;;;6.40;99.90;;;;;;5052092;28;20198;-72
2023/12/15 09:42:09;;;;;;;92.60;36.83;;;6.40;99.90;;;;;;5053859;28;20599;-71
2023/12/15 09:44:34;;;;;;;93.20;39.07;;;6.50;99.90;;;;;;5053430;28;20251;-71
2023/12/15 09:47:01;;;;;;;94.70;40.23;;;6.50;99.90;;;;;;5053655;28;20166;-70
2023/12/15 09:49:29;;;;;;;83.33;38.00;;;6.50;99.90;;;;;;5051903;28;20638;-71
2023/12/15 09:52:01;;;;;;;93.37;37.23;;;6.50;99.90;;;;;;5053742;28;20194;-71
2023/12/15 09:54:27;;;;;;;89.57;38.43;;;6.50;99.90;;;;;;5052061;28;20171;-71
2023/12/15 09:56:55;;;;;;;94.27;39.63;;;6.60;99.90;;;;;;5053213;28;20210;-71
2023/12/15 09:59:22;;;;;;;96.87;39.03;;;6.60;99.90;;;;;;5053225;28;20200;-71
2023/12/15 10:01:48;;;;;;;94.37;37.60;;;6.60;99.90;;;;;;5053162;28;20591;-71
2023/12/15 10:04:14;;;;;;;89.23;38.83;;;6.60;99.90;;;;;;5053487;28;20180;-71
2023/12/15 10:06:40;;;;;;;91.70;37.23;;;6.60;99.90;;;;;;5053187;28;20194;-71
2023/12/15 10:09:18;;;;;;;88.10;36.00;;;6.60;99.90;;;;;;5051777;28;20206;-72
2023/12/15 10:11:45;;;;;;;83.13;35.73;;;6.70;99.90;;;;;;5052866;28;20229;-72
2023/12/15 10:14:11;;;;;;;86.77;36.37;;;6.70;99.90;;;;;;5053100;28;20213;-71
2023/12/15 10:16:38;;;;;;;78.30;36.27;;;6.70;99.90;;;;;;5051811;28;20186;-72
2023/12/15 10:19:06;;;;;;;80.57;33.43;;;6.70;99.90;;;;;;5051778;28;20194;-72
2023/12/15 10:21:32;;;;;;;79.37;36.10;;;6.80;99.90;;;;;;5053260;28;20186;-72
2023/12/15 10:23:59;;;;;;;76.53;33.73;;;6.80;99.90;;;;;;5051730;28;20171;-72
2023/12/15 10:26:27;;;;;;;76.53;35.60;;;6.80;99.90;;;;;;5052707;28;20212;-72
2023/12/15 10:28:55;;;;;;;81.53;34.33;;;6.80;99.90;;;;;;5053260;28;20190;-71
2023/12/15 10:31:25;;;;;;;77.73;34.80;;;6.90;99.90;;;;;;5051636;28;20210;-72
2023/12/15 10:33:51;;;;;;;75.17;34.73;;;6.90;99.90;;;;;;5051984;28;20253;-71
2023/12/15 10:36:17;;;;;;;79.23;36.07;;;6.90;99.90;;;;;;5056255;28;20183;-71
2023/12/15 10:38:43;;;;;;;79.17;33.83;;;7.00;99.90;;;;;;5055945;28;20205;-71
2023/12/15 10:41:09;;;;;;;81.57;34.13;;;6.90;99.90;;;;;;5056819;28;20167;-71
2023/12/15 10:43:37;;;;;;;85.07;33.10;;;7.00;99.90;;;;;;5057141;28;20261;-72
2023/12/15 10:46:07;;;;;;;68.93;32.50;;;7.00;99.90;;;;;;5056726;28;20261;-72
2023/12/15 10:48:34;;;;;;;73.20;30.67;;;7.00;99.90;;;;;;5056494;28;20264;-71
2023/12/15 10:51:01;;;;;;;74.07;31.90;;;7.00;99.90;;;;;;5055589;28;20210;-71
2023/12/15 10:53:28;;;;;;;70.10;29.43;;;7.00;99.90;;;;;;5055362;28;20200;-71
2023/12/15 10:55:54;;;;;;;76.67;32.33;;;7.00;99.90;;;;;;5055153;28;20179;-71
2023/12/15 10:58:20;;;;;;;72.23;32.37;;;7.10;99.90;;;;;;5056669;28;20252;-71
2023/12/15 11:00:46;;;;;;;64.57;31.23;;;7.00;99.90;;;;;;5056927;28;20174;-71
2023/12/15 11:03:13;;;;;;;73.30;34.73;;;7.10;99.90;;;;;;5056648;28;20175;-71
2023/12/15 11:05:41;;;;;;;79.13;34.67;;;7.20;99.90;;;;;;5055097;28;20174;-72
2023/12/15 11:08:08;;;;;;;82.00;36.67;;;7.10;99.90;;;;;;5056576;28;20217;-71
2023/12/15 11:10:35;;;;;;;77.67;35.67;;;7.20;99.90;;;;;;5056424;28;20178;-71
2023/12/15 11:13:01;;;;;;;76.53;34.73;;;7.20;99.90;;;;;;5056551;28;20170;-71
2023/12/15 11:15:27;;;;;;;72.07;32.60;;;7.30;99.90;;;;;;5055206;28;20269;-71
2023/12/15 11:17:59;;;;;;;81.07;34.10;;;7.20;99.90;;;;;;5055025;28;20246;-71
2023/12/15 11:20:26;;;;;;;78.53;34.67;;;7.20;99.90;;;;;;5055487;28;20209;-71
2023/12/15 11:23:06;;;;;;;72.27;32.53;;;7.20;99.90;;;;;;5056217;28;20650;-72
2023/12/15 11:25:34;;;;;;;76.17;33.03;;;7.20;99.90;;;;;;5056479;28;20163;-72
2023/12/15 11:28:08;;;;;;;70.33;33.90;;;7.30;99.90;;;;;;5054662;28;20185;-72
2023/12/15 11:30:41;;;;;;;82.73;36.30;;;7.30;99.90;;;;;;5055095;28;20591;-72
2023/12/15 11:33:26;;;;;;;68.70;34.50;;;7.30;99.90;;;;;;5058613;28;20693;-72
2023/12/15 11:35:53;;;;;;;79.27;37.83;;;7.30;99.90;;;;;;5057163;28;20174;-72
2023/12/15 11:38:20;;;;;;;70.93;32.63;;;7.30;99.90;;;;;;5056119;28;20190;-71
2023/12/15 11:40:49;;;;;;;68.53;31.83;;;7.30;99.90;;;;;;5055912;28;20175;-72
2023/12/15 11:43:15;;;;;;;71.57;32.97;;;7.30;99.90;;;;;;5055926;28;20174;-72
2023/12/15 11:45:41;;;;;;;67.17;32.23;;;7.40;99.90;;;;;;5056515;28;20236;-72
2023/12/15 11:48:10;;;;;;;69.37;32.17;;;7.40;99.90;;;;;;5053511;28;20625;-72
2023/12/15 11:50:38;;;;;;;63.73;31.00;;;7.40;99.90;;;;;;5056115;28;20190;-71
2023/12/15 11:53:08;;;;;;;64.97;30.63;;;7.40;99.90;;;;;;5056197;28;20639;-72
2023/12/15 11:55:34;;;;;;;61.83;31.07;;;7.40;99.90;;;;;;5054143;28;20586;-72
2023/12/15 11:58:00;;;;;;;68.77;32.20;;;7.40;99.90;;;;;;5055442;28;20183;-72
2023/12/15 12:00:26;;;;;;;66.33;32.53;;;7.40;99.90;;;;;;5055857;28;20209;-71
2023/12/15 12:02:52;;;;;;;64.73;31.30;;;7.40;99.90;;;;;;5055580;28;20175;-73
2023/12/15 12:05:18;;;;;;;71.07;33.70;;;7.40;99.90;;;;;;5055798;28;20573;-72
2023/12/15 12:07:44;;;;;;;72.80;31.10;;;7.40;99.90;;;;;;5053961;28;20539;-72
2023/12/15 12:10:10;;;;;;;66.33;31.63;;;7.40;99.90;;;;;;5055032;28;20179;-72
2023/12/15 12:12:37;;;;;;;66.27;31.63;;;7.40;99.90;;;;;;5055276;28;20213;-72
2023/12/15 12:15:04;;;;;;;65.20;31.67;;;7.40;99.90;;;;;;5053948;28;20197;-72
2023/12/15 12:17:31;;;;;;;74.27;32.93;;;7.40;99.90;;;;;;5055325;28;20261;-72
2023/12/15 12:20:10;;;;;;;69.33;31.20;;;7.40;99.90;;;;;;5055125;28;20333;-72
2023/12/15 12:22:40;;;;;;;64.80;30.57;;;7.40;99.90;;;;;;5055368;28;20633;-72
2023/12/15 12:25:06;;;;;;;64.83;31.83;;;7.50;99.90;;;;;;5053392;28;20201;-72
2023/12/15 12:27:36;;;;;;;69.67;33.13;;;7.50;99.90;;;;;;5053444;28;20269;-73
2023/12/15 12:30:10;;;;;;;73.10;34.10;;;7.60;99.90;;;;;;5053407;28;20232;-71
2023/12/15 12:32:36;;;;;;;78.17;35.23;;;7.60;99.90;;;;;;5054747;28;20222;-71